createdAt,value
2023-02-11T00:01:08.057Z,0.20
2023-02-11T00:03:35.182Z,0.20
2023-02-11T00:06:05.426Z,0.20
2023-02-11T00:08:32.569Z,0.30
2023-02-11T00:10:59.346Z,0.20
2023-02-11T00:13:26.405Z,0.30
2023-02-11T00:15:54.744Z,0.20
2023-02-11T00:18:21.727Z,0.20
2023-02-11T00:20:48.629Z,0.20
2023-02-11T00:23:18.201Z,0.20
2023-02-11T00:25:45.677Z,0.30
2023-02-11T00:28:12.848Z,0.30
2023-02-11T00:30:41.154Z,0.20
2023-02-11T00:33:08.687Z,0.20
2023-02-11T00:35:37.943Z,0.20
2023-02-11T00:38:04.789Z,0.20
2023-02-11T00:40:31.549Z,0.20
2023-02-11T00:42:58.344Z,0.20
2023-02-11T00:45:25.226Z,0.30
2023-02-11T00:47:51.965Z,0.20
2023-02-11T00:50:18.775Z,0.20
2023-02-11T00:52:45.500Z,0.20
2023-02-11T00:55:12.223Z,0.20
2023-02-11T00:57:39.021Z,0.30
2023-02-11T01:00:06.448Z,0.20
2023-02-11T01:02:34.029Z,0.20
2023-02-11T01:05:01.088Z,0.20
2023-02-11T01:07:28.855Z,0.20
2023-02-11T01:09:55.785Z,0.20
2023-02-11T01:12:22.860Z,0.30
2023-02-11T01:14:49.651Z,0.30
2023-02-11T01:17:18.478Z,0.30
2023-02-11T01:19:45.194Z,0.30
2023-02-11T01:22:11.905Z,0.30
2023-02-11T01:24:38.675Z,0.20
2023-02-11T01:27:07.398Z,0.20
2023-02-11T01:29:34.259Z,0.30
2023-02-11T01:32:01.412Z,0.20
2023-02-11T01:34:28.529Z,0.20
2023-02-11T01:37:00.181Z,0.30
2023-02-11T01:39:29.150Z,0.20
2023-02-11T01:41:55.859Z,0.20
2023-02-11T01:44:26.040Z,0.20
2023-02-11T01:46:53.283Z,0.20
2023-02-11T01:49:25.336Z,0.20
2023-02-11T01:52:02.775Z,0.20
2023-02-11T01:54:59.989Z,0.30
2023-02-11T01:57:29.910Z,0.20
2023-02-11T02:00:14.844Z,0.20
2023-02-11T02:03:04.980Z,0.20
2023-02-11T02:05:31.753Z,0.30
2023-02-11T02:08:32.227Z,0.30
2023-02-11T02:11:01.194Z,0.30
2023-02-11T02:13:32.616Z,0.20
2023-02-11T02:16:02.015Z,0.30
2023-02-11T02:18:55.117Z,0.30
2023-02-11T02:21:34.036Z,0.30
2023-02-11T02:24:19.001Z,0.30
2023-02-11T02:27:10.339Z,0.20
2023-02-11T02:29:55.360Z,0.20
2023-02-11T02:33:23.860Z,0.30
2023-02-11T02:35:59.628Z,0.20
2023-02-11T02:38:32.301Z,0.20
2023-02-11T02:41:06.943Z,0.20
2023-02-11T02:43:35.097Z,0.30
2023-02-11T02:46:15.804Z,0.20
2023-02-11T02:48:43.405Z,0.30
2023-02-11T02:51:12.760Z,0.30
2023-02-11T02:54:06.663Z,0.20
2023-02-11T02:56:55.937Z,0.20
2023-02-11T02:59:36.696Z,0.30
2023-02-11T03:02:41.900Z,0.30
2023-02-11T03:05:27.303Z,0.30
2023-02-11T03:08:01.950Z,0.25
2023-02-11T03:10:32.607Z,0.20
2023-02-11T03:13:00.972Z,0.20
2023-02-11T03:15:32.433Z,0.30
2023-02-11T03:18:02.627Z,0.30
2023-02-11T03:20:34.130Z,0.30
2023-02-11T03:23:19.045Z,0.20
2023-02-11T03:25:53.181Z,0.30
2023-02-11T03:28:55.478Z,0.30
2023-02-11T03:31:27.833Z,0.20
2023-02-11T03:34:02.483Z,0.22
2023-02-11T03:37:19.748Z,0.20
2023-02-11T03:39:52.833Z,0.20
2023-02-11T03:42:20.227Z,0.20
2023-02-11T03:44:53.612Z,0.20
2023-02-11T03:47:24.910Z,0.20
2023-02-11T03:49:54.830Z,0.30
2023-02-11T03:52:23.303Z,0.30
2023-02-11T03:54:54.769Z,0.20
2023-02-11T03:57:21.740Z,0.30
2023-02-11T03:59:54.727Z,0.20
2023-02-11T04:02:25.481Z,0.30
2023-02-11T04:04:52.197Z,0.30
2023-02-11T04:07:18.970Z,0.30
2023-02-11T04:09:45.713Z,0.30
2023-02-11T04:12:12.588Z,0.30
2023-02-11T04:14:39.351Z,0.20
2023-02-11T04:17:06.264Z,0.20
2023-02-11T04:19:33.158Z,0.30
2023-02-11T04:22:00.129Z,0.22
2023-02-11T04:24:27.030Z,0.40
2023-02-11T04:26:53.828Z,0.30
2023-02-11T04:29:20.554Z,0.30
2023-02-11T04:31:47.490Z,0.30
2023-02-11T04:34:14.559Z,0.30
2023-02-11T04:36:41.665Z,0.30
2023-02-11T04:39:08.498Z,0.30
2023-02-11T04:41:35.328Z,0.30
2023-02-11T04:44:02.011Z,0.30
2023-02-11T04:46:28.831Z,0.30
2023-02-11T04:48:57.018Z,0.30
2023-02-11T04:51:24.080Z,0.25
2023-02-11T04:53:50.813Z,0.30
2023-02-11T04:56:17.552Z,0.28
2023-02-11T04:58:44.326Z,0.30
2023-02-11T05:01:14.576Z,0.30
2023-02-11T05:03:42.247Z,0.20
2023-02-11T05:06:11.019Z,0.22
2023-02-11T05:08:37.748Z,0.30
2023-02-11T05:11:04.696Z,0.30
2023-02-11T05:13:32.164Z,0.30
2023-02-11T05:15:58.922Z,0.30
2023-02-11T05:18:25.776Z,0.25
2023-02-11T05:20:52.485Z,0.30
2023-02-11T05:23:19.111Z,0.20
2023-02-11T05:25:45.907Z,0.20
2023-02-11T05:28:12.744Z,0.30
2023-02-11T05:30:39.580Z,0.30
2023-02-11T05:33:06.612Z,0.20
2023-02-11T05:35:33.446Z,0.30
2023-02-11T05:38:00.157Z,0.20
2023-02-11T05:40:26.888Z,0.20
2023-02-11T05:42:53.606Z,0.20
2023-02-11T05:45:20.328Z,0.30
2023-02-11T05:47:46.967Z,0.30
2023-02-11T05:50:13.767Z,0.30
2023-02-11T05:52:40.526Z,0.20
2023-02-11T05:55:07.585Z,0.20
2023-02-11T05:57:34.671Z,0.20
2023-02-11T06:00:01.304Z,0.30
2023-02-11T06:02:28.162Z,0.30
2023-02-11T06:04:54.833Z,0.30
2023-02-11T06:07:21.505Z,0.30
2023-02-11T06:09:48.311Z,0.30
2023-02-11T06:12:15.036Z,0.30
2023-02-11T06:14:42.058Z,0.20
2023-02-11T06:17:08.864Z,0.30
2023-02-11T06:19:35.659Z,0.30
2023-02-11T06:22:02.515Z,0.30
2023-02-11T06:24:54.705Z,0.30
2023-02-11T06:27:16.180Z,0.30
2023-02-11T06:29:42.955Z,0.30
2023-02-11T06:32:23.346Z,0.30
2023-02-11T06:34:56.516Z,0.30
2023-02-11T06:37:23.168Z,0.30
2023-02-11T06:39:49.975Z,0.30
2023-02-11T06:42:16.756Z,0.30
2023-02-11T06:44:44.631Z,0.30
2023-02-11T06:47:11.464Z,0.20
2023-02-11T06:49:38.293Z,0.30
2023-02-11T06:52:05.655Z,0.30
2023-02-11T06:54:32.431Z,0.30
2023-02-11T06:56:59.154Z,0.30
2023-02-11T06:59:25.946Z,0.30
2023-02-11T07:01:52.792Z,0.28
2023-02-11T07:04:20.155Z,0.20
2023-02-11T07:06:47.319Z,0.30
2023-02-11T07:09:14.305Z,0.30
2023-02-11T07:11:41.008Z,0.30
2023-02-11T07:14:08.677Z,0.30
2023-02-11T07:16:35.753Z,0.30
2023-02-11T07:19:02.824Z,0.30
2023-02-11T07:21:29.636Z,0.30
2023-02-11T07:23:56.353Z,0.30
2023-02-11T07:26:24.288Z,0.20
2023-02-11T07:28:51.472Z,0.30
2023-02-11T07:31:24.823Z,0.20
2023-02-11T07:33:53.611Z,0.20
2023-02-11T07:36:20.587Z,0.30
2023-02-11T07:38:47.352Z,0.20
2023-02-11T07:41:17.967Z,0.20
2023-02-11T07:43:45.043Z,0.30
2023-02-11T07:46:17.198Z,0.30
2023-02-11T07:48:44.337Z,0.20
2023-02-11T07:51:17.065Z,0.20
2023-02-11T07:53:44.532Z,0.20
2023-02-11T07:56:12.374Z,0.20
2023-02-11T07:58:39.373Z,0.20
2023-02-11T08:01:08.359Z,0.20
2023-02-11T08:03:36.711Z,0.20
2023-02-11T08:06:07.915Z,0.20
2023-02-11T08:08:34.985Z,0.20
2023-02-11T08:11:19.025Z,0.20
2023-02-11T08:16:23.001Z,0.20
2023-02-11T08:18:50.763Z,0.20
2023-02-11T08:21:18.622Z,0.20
2023-02-11T08:23:46.000Z,0.20
2023-02-11T08:26:16.190Z,0.20
2023-02-11T08:28:44.602Z,0.20
2023-02-11T08:31:15.361Z,0.30
2023-02-11T08:33:42.205Z,0.30
2023-02-11T08:36:17.327Z,0.20
2023-02-11T08:38:45.066Z,0.30
2023-02-11T08:41:14.948Z,0.20
2023-02-11T08:43:43.241Z,0.20
2023-02-11T08:46:14.037Z,0.20
2023-02-11T08:48:41.222Z,0.20
2023-02-11T08:51:09.644Z,0.20
2023-02-11T08:53:36.920Z,0.20
2023-02-11T08:56:03.844Z,0.20
2023-02-11T08:58:30.699Z,0.20
2023-02-11T09:00:57.594Z,0.20
2023-02-11T09:03:24.432Z,0.20
2023-02-11T09:05:53.343Z,0.20
2023-02-11T09:08:21.097Z,0.20
2023-02-11T09:10:47.886Z,0.20
2023-02-11T09:13:14.771Z,0.30
2023-02-11T09:15:45.822Z,0.20
2023-02-11T09:18:12.564Z,0.20
2023-02-11T09:20:39.267Z,0.20
2023-02-11T09:23:06.055Z,0.20
2023-02-11T09:25:32.752Z,0.20
2023-02-11T09:27:59.471Z,0.20
2023-02-11T09:30:26.368Z,0.20
2023-02-11T09:32:53.091Z,0.20
2023-02-11T09:35:19.728Z,0.10
2023-02-11T09:37:46.416Z,0.20
2023-02-11T09:40:14.733Z,0.20
2023-02-11T09:43:04.269Z,0.20
2023-02-11T09:45:32.510Z,0.20
2023-02-11T09:48:05.828Z,0.20
2023-02-11T09:50:36.760Z,0.20
2023-02-11T09:53:11.701Z,0.20
2023-02-11T09:55:44.979Z,0.20
2023-02-11T09:58:25.101Z,0.20
2023-02-11T10:01:03.107Z,0.20
2023-02-11T10:03:50.616Z,0.20
2023-02-11T10:06:26.651Z,0.20
2023-02-11T10:09:12.207Z,0.20
2023-02-11T10:11:47.729Z,0.20
2023-02-11T10:14:35.819Z,0.10
2023-02-11T10:17:26.000Z,0.20
2023-02-11T10:20:08.027Z,0.20
2023-02-11T10:22:47.854Z,0.15
2023-02-11T10:25:22.763Z,0.20
2023-02-11T10:27:51.437Z,0.20
2023-02-11T10:30:42.580Z,0.13
2023-02-11T10:33:20.909Z,0.20
2023-02-11T10:35:47.722Z,0.20
2023-02-11T10:38:14.556Z,0.20
2023-02-11T10:40:41.276Z,0.10
2023-02-11T10:43:13.568Z,0.20
2023-02-11T10:45:47.525Z,0.10
2023-02-11T10:48:41.225Z,0.20
2023-02-11T10:51:14.070Z,0.20
2023-02-11T10:53:41.546Z,0.20
2023-02-11T10:56:12.903Z,0.20
2023-02-11T10:58:59.200Z,0.20
2023-02-11T11:01:51.171Z,0.20
2023-02-11T11:04:30.419Z,0.10
2023-02-11T11:07:09.748Z,0.20
2023-02-11T11:09:50.768Z,0.10
2023-02-11T11:12:26.387Z,0.10
2023-02-11T11:15:18.924Z,0.20
2023-02-11T11:17:46.807Z,0.20
2023-02-11T11:20:22.556Z,0.20
2023-02-11T11:22:53.249Z,0.10
2023-02-11T11:25:27.081Z,0.10
2023-02-11T11:28:00.829Z,0.17
2023-02-11T11:30:39.098Z,0.20
2023-02-11T11:33:18.922Z,0.20
2023-02-11T11:36:15.325Z,0.20
2023-02-11T11:38:58.499Z,0.10
2023-02-11T11:41:31.352Z,0.20
2023-02-11T11:44:23.047Z,0.10
2023-02-11T11:47:04.932Z,0.10
2023-02-11T11:49:37.970Z,0.10
2023-02-11T11:52:20.021Z,0.10
2023-02-11T11:54:55.658Z,0.20
2023-02-11T11:57:27.234Z,0.20
2023-02-11T11:59:54.367Z,0.20
2023-02-11T12:02:42.806Z,0.20
2023-02-11T12:05:22.768Z,0.10
2023-02-11T12:08:04.005Z,0.10
2023-02-11T12:10:50.150Z,0.20
2023-02-11T12:13:41.005Z,0.10
2023-02-11T12:16:31.217Z,0.10
2023-02-11T12:18:57.845Z,0.10
2023-02-11T12:21:49.110Z,0.10
2023-02-11T12:24:31.407Z,0.10
2023-02-11T12:27:14.163Z,0.20
2023-02-11T12:29:56.758Z,0.20
2023-02-11T12:32:33.611Z,0.10
2023-02-11T12:35:31.096Z,0.10
2023-02-11T12:38:08.410Z,0.10
2023-02-11T12:40:53.423Z,0.10
2023-02-11T12:43:39.680Z,0.10
2023-02-11T12:46:28.035Z,0.20
2023-02-11T12:48:54.799Z,0.10
2023-02-11T12:51:39.708Z,0.20
2023-02-11T12:54:23.835Z,0.10
2023-02-11T12:59:43.744Z,0.10
2023-02-11T13:02:36.594Z,0.13
2023-02-11T13:05:18.794Z,0.20
2023-02-11T13:07:47.374Z,0.20
2023-02-11T13:10:14.111Z,0.10
2023-02-11T13:13:05.044Z,0.10
2023-02-11T13:15:32.054Z,0.17
2023-02-11T13:18:18.786Z,0.10
2023-02-11T13:20:56.330Z,0.10
2023-02-11T13:23:31.764Z,0.10
2023-02-11T13:26:21.148Z,0.20
2023-02-11T13:29:29.406Z,0.10
2023-02-11T13:32:07.325Z,0.10
2023-02-11T13:34:43.259Z,0.10
2023-02-11T13:37:22.277Z,0.20
2023-02-11T13:40:00.326Z,0.20
2023-02-11T13:42:28.780Z,0.10
2023-02-11T13:44:56.069Z,0.10
2023-02-11T13:47:30.517Z,0.10
2023-02-11T13:49:58.571Z,0.10
2023-02-11T13:52:37.438Z,0.10
2023-02-11T13:55:25.128Z,0.20
2023-02-11T13:58:06.913Z,0.10
2023-02-11T14:00:36.689Z,0.10
2023-02-11T14:03:31.354Z,0.10
2023-02-11T14:06:32.852Z,0.10
2023-02-11T14:09:09.048Z,0.10
2023-02-11T14:11:44.895Z,0.20
2023-02-11T14:14:19.400Z,0.10
2023-02-11T14:17:07.779Z,0.10
2023-02-11T14:19:34.500Z,0.10
2023-02-11T14:22:10.448Z,0.10
2023-02-11T14:24:38.360Z,0.10
2023-02-11T14:27:10.074Z,0.10
2023-02-11T14:30:02.346Z,0.10
2023-02-11T14:32:47.853Z,0.10
2023-02-11T14:35:36.209Z,0.20
2023-02-11T14:38:17.762Z,0.10
2023-02-11T14:41:17.508Z,0.10
2023-02-11T14:43:51.692Z,0.10
2023-02-11T14:46:21.029Z,0.10
2023-02-11T14:48:50.616Z,0.20
2023-02-11T14:51:23.614Z,0.10
2023-02-11T14:53:53.520Z,0.10
2023-02-11T14:56:26.435Z,0.20
2023-02-11T14:58:55.039Z,0.10
2023-02-11T15:01:32.747Z,0.10
2023-02-11T15:04:01.468Z,0.10
2023-02-11T15:06:42.902Z,0.10
2023-02-11T15:09:33.949Z,0.20
2023-02-11T15:12:01.344Z,0.10
2023-02-11T15:14:33.958Z,0.10
2023-02-11T15:17:04.015Z,0.10
2023-02-11T15:19:45.119Z,0.10
2023-02-11T15:22:22.306Z,0.10
2023-02-11T15:25:10.710Z,0.10
2023-02-11T15:27:43.083Z,0.20
2023-02-11T15:30:22.354Z,0.10
2023-02-11T15:33:00.016Z,0.10
2023-02-11T15:35:29.353Z,0.20
2023-02-11T15:37:57.636Z,0.10
2023-02-11T15:40:28.101Z,0.20
2023-02-11T15:42:59.030Z,0.10
2023-02-11T15:45:31.128Z,0.10
2023-02-11T15:48:06.360Z,0.10
2023-02-11T15:50:37.255Z,0.10
2023-02-11T15:53:21.736Z,0.20
2023-02-11T15:55:51.507Z,0.20
2023-02-11T15:58:18.462Z,0.20
2023-02-11T16:00:48.893Z,0.20
2023-02-11T16:03:22.309Z,0.10
2023-02-11T16:05:49.275Z,0.10
2023-02-11T16:08:25.575Z,0.10
2023-02-11T16:11:08.880Z,0.10
2023-02-11T16:13:46.376Z,0.10
2023-02-11T16:16:20.026Z,0.10
2023-02-11T16:21:42.467Z,0.10
2023-02-11T16:24:19.171Z,0.10
2023-02-11T16:26:50.224Z,0.20
2023-02-11T16:29:29.185Z,0.10
2023-02-11T16:32:08.199Z,0.10
2023-02-11T16:34:35.595Z,0.10
2023-02-11T16:37:05.318Z,0.10
2023-02-11T16:39:32.942Z,0.20
2023-02-11T16:42:00.930Z,0.10
2023-02-11T16:44:28.479Z,0.10
2023-02-11T16:46:58.610Z,0.10
2023-02-11T16:49:28.811Z,0.10
2023-02-11T16:52:01.241Z,0.10
2023-02-11T16:54:29.401Z,0.20
2023-02-11T16:56:56.894Z,0.20
2023-02-11T16:59:24.248Z,0.10
2023-02-11T17:01:53.340Z,0.10
2023-02-11T17:04:27.561Z,0.10
2023-02-11T17:06:57.159Z,0.10
2023-02-11T17:09:30.243Z,0.10
2023-02-11T17:11:57.850Z,0.10
2023-02-11T17:14:24.751Z,0.20
2023-02-11T17:16:51.794Z,0.10
2023-02-11T17:19:21.249Z,0.10
2023-02-11T17:21:50.941Z,0.10
2023-02-11T17:24:18.274Z,0.20
2023-02-11T17:26:46.186Z,0.20
2023-02-11T17:29:19.770Z,0.10
2023-02-11T17:31:46.685Z,0.10
2023-02-11T17:34:13.380Z,0.10
2023-02-11T17:36:41.498Z,0.10
2023-02-11T17:39:08.721Z,0.20
2023-02-11T17:41:37.818Z,0.20
2023-02-11T17:44:05.454Z,0.10
2023-02-11T17:46:32.444Z,0.10
2023-02-11T17:48:59.764Z,0.20
2023-02-11T17:51:30.213Z,0.10
2023-02-11T17:54:02.053Z,0.10
2023-02-11T17:56:31.493Z,0.10
2023-02-11T17:58:58.223Z,0.10
2023-02-11T18:01:28.084Z,0.10
2023-02-11T18:03:54.768Z,0.10
2023-02-11T18:06:21.848Z,0.20
2023-02-11T18:08:49.082Z,0.10
2023-02-11T18:11:16.509Z,0.20
2023-02-11T18:13:45.363Z,0.10
2023-02-11T18:16:15.933Z,0.20
2023-02-11T18:18:43.417Z,0.10
2023-02-11T18:21:19.684Z,0.10
2023-02-11T18:23:47.416Z,0.20
2023-02-11T18:26:15.579Z,0.10
2023-02-11T18:28:45.277Z,0.10
2023-02-11T18:31:14.017Z,0.20
2023-02-11T18:33:41.790Z,0.10
2023-02-11T18:36:13.780Z,0.10
2023-02-11T18:38:42.133Z,0.10
2023-02-11T18:41:08.950Z,0.10
2023-02-11T18:43:36.447Z,0.10
2023-02-11T18:46:07.894Z,0.10
2023-02-11T18:48:34.837Z,0.10
2023-02-11T18:51:01.591Z,0.10
2023-02-11T18:53:28.281Z,0.13
2023-02-11T18:55:55.406Z,0.10
2023-02-11T18:58:22.570Z,0.20
2023-02-11T19:00:49.688Z,0.10
2023-02-11T19:03:17.123Z,0.20
2023-02-11T19:05:49.341Z,0.20
2023-02-11T19:08:17.246Z,0.10
2023-02-11T19:10:47.059Z,0.10
2023-02-11T19:13:14.497Z,0.10
2023-02-11T19:15:45.701Z,0.10
2023-02-11T19:18:14.311Z,0.10
2023-02-11T19:20:43.000Z,0.10
2023-02-11T19:23:10.216Z,0.10
2023-02-11T19:25:37.304Z,0.10
2023-02-11T19:28:04.369Z,0.10
2023-02-11T19:30:31.123Z,0.20
2023-02-11T19:32:57.959Z,0.10
2023-02-11T19:35:25.825Z,0.10
2023-02-11T19:37:52.696Z,0.10
2023-02-11T19:40:21.692Z,0.10
2023-02-11T19:42:48.364Z,0.10
2023-02-11T19:45:15.262Z,0.20
2023-02-11T19:47:42.136Z,0.10
2023-02-11T19:50:09.772Z,0.20
2023-02-11T19:52:40.832Z,0.10
2023-02-11T19:55:08.791Z,0.10
2023-02-11T19:57:36.674Z,0.17
2023-02-11T20:00:05.106Z,0.20
2023-02-11T20:02:39.919Z,0.10
2023-02-11T20:05:07.517Z,0.10
2023-02-11T20:07:34.998Z,0.10
2023-02-11T20:10:03.033Z,0.10
2023-02-11T20:12:29.784Z,0.20
2023-02-11T20:14:56.437Z,0.10
2023-02-11T20:17:23.447Z,0.10
2023-02-11T20:19:50.161Z,0.10
2023-02-11T20:22:16.876Z,0.10
2023-02-11T20:24:43.735Z,0.10
2023-02-11T20:27:11.633Z,0.10
2023-02-11T20:29:39.240Z,0.10
2023-02-11T20:32:07.365Z,0.10
2023-02-11T20:34:34.572Z,0.10
2023-02-11T20:37:02.313Z,0.10
2023-02-11T20:39:29.151Z,0.10
2023-02-11T20:41:58.122Z,0.20
2023-02-11T20:44:24.927Z,0.10
2023-02-11T20:46:54.063Z,0.10
2023-02-11T20:49:23.959Z,0.20
2023-02-11T20:51:52.560Z,0.20
2023-02-11T20:54:21.043Z,0.10
2023-02-11T20:56:51.280Z,0.10
2023-02-11T20:59:18.398Z,0.10
2023-02-11T21:01:48.495Z,0.10
2023-02-11T21:04:20.921Z,0.10
2023-02-11T21:06:50.429Z,0.10
2023-02-11T21:09:19.966Z,0.10
2023-02-11T21:11:47.467Z,0.20
2023-02-11T21:14:14.647Z,0.10
2023-02-11T21:16:41.542Z,0.10
2023-02-11T21:19:08.342Z,0.10
2023-02-11T21:21:37.330Z,0.10
2023-02-11T21:24:05.590Z,0.10
2023-02-11T21:26:32.582Z,0.10
2023-02-11T21:28:59.437Z,0.20
2023-02-11T21:31:29.286Z,0.10
2023-02-11T21:33:57.312Z,0.10
2023-02-11T21:36:24.142Z,0.10
2023-02-11T21:38:51.248Z,0.10
2023-02-11T21:41:19.942Z,0.10
2023-02-11T21:43:46.632Z,0.10
2023-02-11T21:46:15.615Z,0.10
2023-02-11T21:48:43.168Z,0.20
2023-02-11T21:51:17.193Z,0.10
2023-02-11T21:53:44.364Z,0.10
2023-02-11T21:56:18.618Z,0.10
2023-02-11T21:58:46.646Z,0.15
2023-02-11T22:01:19.539Z,0.10
2023-02-11T22:03:46.915Z,0.10
2023-02-11T22:06:18.305Z,0.10
2023-02-11T22:08:45.019Z,0.10
2023-02-11T22:11:13.161Z,0.10
2023-02-11T22:13:41.461Z,0.10
2023-02-11T22:16:11.981Z,0.10
2023-02-11T22:18:39.629Z,0.10
2023-02-11T22:21:09.010Z,0.10
2023-02-11T22:23:36.508Z,0.20
2023-02-11T22:26:06.212Z,0.10
2023-02-11T22:28:33.528Z,0.20
2023-02-11T22:31:00.385Z,0.10
2023-02-11T22:33:28.634Z,0.10
2023-02-11T22:36:04.013Z,0.20
2023-02-11T22:38:32.717Z,0.10
2023-02-11T22:41:05.220Z,0.10
2023-02-11T22:43:32.039Z,0.10
2023-02-11T22:46:03.818Z,0.20
2023-02-11T22:48:31.044Z,0.10
2023-02-11T22:51:04.476Z,0.10
2023-02-11T22:53:31.174Z,0.10
2023-02-11T22:56:02.302Z,0.10
2023-02-11T22:58:29.156Z,0.20
2023-02-11T23:00:55.826Z,0.10
2023-02-11T23:03:22.762Z,0.10
2023-02-11T23:05:49.540Z,0.10
2023-02-11T23:08:16.270Z,0.10
2023-02-11T23:10:43.163Z,0.10
2023-02-11T23:13:10.605Z,0.10
2023-02-11T23:15:41.763Z,0.20
2023-02-11T23:18:09.639Z,0.10
2023-02-11T23:20:38.672Z,0.10
2023-02-11T23:23:05.936Z,0.10
2023-02-11T23:25:33.672Z,0.10
2023-02-11T23:28:01.715Z,0.10
2023-02-11T23:30:28.674Z,0.10
2023-02-11T23:32:55.394Z,0.20
2023-02-11T23:35:23.190Z,0.10
2023-02-11T23:37:51.036Z,0.20
2023-02-11T23:40:18.844Z,0.10
2023-02-11T23:42:45.886Z,0.10
2023-02-11T23:45:12.783Z,0.10
2023-02-11T23:47:40.049Z,0.10
2023-02-11T23:50:10.256Z,0.10
2023-02-11T23:52:37.339Z,0.10
2023-02-11T23:55:04.603Z,0.10
2023-02-11T23:57:35.124Z,0.10
